sensor_id;sensor_type;location;lat;lon;timestamp;P1;durP1;ratioP1;P2;durP2;ratioP2
13941;SDS011;7043;51.630;7.254;2023-04-30T00:00:22;15.20;;;12.50;;
13941;SDS011;7043;51.630;7.254;2023-04-30T00:02:47;13.70;;;11.93;;
13941;SDS011;7043;51.630;7.254;2023-04-30T00:05:13;14.07;;;12.53;;
13941;SDS011;7043;51.630;7.254;2023-04-30T00:07:40;13.40;;;12.00;;
13941;SDS011;7043;51.630;7.254;2023-04-30T00:10:07;12.40;;;11.10;;
13941;SDS011;7043;51.630;7.254;2023-04-30T00:12:33;13.17;;;11.73;;
13941;SDS011;7043;51.630;7.254;2023-04-30T00:14:59;14.10;;;11.70;;
13941;SDS011;7043;51.630;7.254;2023-04-30T00:17:25;15.23;;;12.73;;
13941;SDS011;7043;51.630;7.254;2023-04-30T00:19:51;14.90;;;13.23;;
13941;SDS011;7043;51.630;7.254;2023-04-30T00:22:17;13.93;;;12.27;;
13941;SDS011;7043;51.630;7.254;2023-04-30T00:24:43;16.07;;;12.97;;
13941;SDS011;7043;51.630;7.254;2023-04-30T00:27:09;14.20;;;12.70;;
13941;SDS011;7043;51.630;7.254;2023-04-30T00:29:35;13.50;;;12.10;;
13941;SDS011;7043;51.630;7.254;2023-04-30T00:32:01;13.67;;;12.23;;
13941;SDS011;7043;51.630;7.254;2023-04-30T00:34:28;12.77;;;11.47;;
13941;SDS011;7043;51.630;7.254;2023-04-30T00:36:54;14.03;;;12.47;;
13941;SDS011;7043;51.630;7.254;2023-04-30T00:39:20;14.07;;;11.90;;
13941;SDS011;7043;51.630;7.254;2023-04-30T00:41:46;13.87;;;12.37;;
13941;SDS011;7043;51.630;7.254;2023-04-30T00:44:12;12.93;;;11.63;;
13941;SDS011;7043;51.630;7.254;2023-04-30T00:46:38;13.27;;;11.87;;
13941;SDS011;7043;51.630;7.254;2023-04-30T00:49:04;12.40;;;11.10;;
13941;SDS011;7043;51.630;7.254;2023-04-30T00:51:31;12.70;;;11.40;;
13941;SDS011;7043;51.630;7.254;2023-04-30T00:53:59;11.93;;;10.73;;
13941;SDS011;7043;51.630;7.254;2023-04-30T00:56:26;13.20;;;10.67;;
13941;SDS011;7043;51.630;7.254;2023-04-30T00:58:53;12.60;;;11.27;;
13941;SDS011;7043;51.630;7.254;2023-04-30T01:01:24;13.80;;;11.73;;
13941;SDS011;7043;51.630;7.254;2023-04-30T01:03:51;12.97;;;11.67;;
13941;SDS011;7043;51.630;7.254;2023-04-30T01:06:17;13.20;;;11.90;;
13941;SDS011;7043;51.630;7.254;2023-04-30T01:08:43;12.97;;;11.60;;
13941;SDS011;7043;51.630;7.254;2023-04-30T01:13:51;12.63;;;11.27;;
13941;SDS011;7043;51.630;7.254;2023-04-30T01:21:18;13.10;;;11.73;;
13941;SDS011;7043;51.630;7.254;2023-04-30T01:29:13;14.93;;;13.20;;
13941;SDS011;7043;51.630;7.254;2023-04-30T01:31:42;15.30;;;12.77;;
13941;SDS011;7043;51.630;7.254;2023-04-30T01:34:09;15.10;;;12.60;;
13941;SDS011;7043;51.630;7.254;2023-04-30T01:47:23;16.03;;;14.27;;
13941;SDS011;7043;51.630;7.254;2023-04-30T01:50:14;15.37;;;13.77;;
13941;SDS011;7043;51.630;7.254;2023-04-30T01:52:45;14.40;;;12.87;;
13941;SDS011;7043;51.630;7.254;2023-04-30T01:55:29;15.90;;;13.53;;
13941;SDS011;7043;51.630;7.254;2023-04-30T01:57:58;15.13;;;13.53;;
13941;SDS011;7043;51.630;7.254;2023-04-30T02:00:26;15.23;;;12.70;;
13941;SDS011;7043;51.630;7.254;2023-04-30T02:02:52;14.40;;;12.87;;
13941;SDS011;7043;51.630;7.254;2023-04-30T02:05:18;14.23;;;12.60;;
13941;SDS011;7043;51.630;7.254;2023-04-30T02:07:45;15.27;;;13.20;;
13941;SDS011;7043;51.630;7.254;2023-04-30T02:10:12;15.63;;;13.27;;
13941;SDS011;7043;51.630;7.254;2023-04-30T02:12:38;14.83;;;13.33;;
13941;SDS011;7043;51.630;7.254;2023-04-30T02:15:04;15.97;;;13.80;;
13941;SDS011;7043;51.630;7.254;2023-04-30T02:17:31;15.80;;;14.10;;
13941;SDS011;7043;51.630;7.254;2023-04-30T02:19:57;16.47;;;13.93;;
13941;SDS011;7043;51.630;7.254;2023-04-30T02:22:23;15.57;;;13.87;;
13941;SDS011;7043;51.630;7.254;2023-04-30T02:24:49;15.37;;;13.40;;
13941;SDS011;7043;51.630;7.254;2023-04-30T02:27:18;16.17;;;14.03;;
13941;SDS011;7043;51.630;7.254;2023-04-30T02:29:44;15.57;;;13.93;;
13941;SDS011;7043;51.630;7.254;2023-04-30T02:32:10;16.63;;;14.90;;
13941;SDS011;7043;51.630;7.254;2023-04-30T02:34:36;17.67;;;14.57;;
13941;SDS011;7043;51.630;7.254;2023-04-30T02:37:02;16.67;;;14.03;;
13941;SDS011;7043;51.630;7.254;2023-04-30T02:39:28;14.60;;;13.07;;
13941;SDS011;7043;51.630;7.254;2023-04-30T02:41:54;15.67;;;14.13;;
13941;SDS011;7043;51.630;7.254;2023-04-30T02:44:20;14.87;;;13.33;;
13941;SDS011;7043;51.630;7.254;2023-04-30T02:46:46;15.73;;;14.13;;
13941;SDS011;7043;51.630;7.254;2023-04-30T02:49:12;14.47;;;12.97;;
13941;SDS011;7043;51.630;7.254;2023-04-30T02:51:38;15.43;;;13.90;;
13941;SDS011;7043;51.630;7.254;2023-04-30T02:54:04;17.27;;;14.03;;
13941;SDS011;7043;51.630;7.254;2023-04-30T02:56:30;17.23;;;14.93;;
13941;SDS011;7043;51.630;7.254;2023-04-30T02:58:56;18.30;;;15.70;;
13941;SDS011;7043;51.630;7.254;2023-04-30T03:01:22;18.57;;;15.60;;
13941;SDS011;7043;51.630;7.254;2023-04-30T03:03:48;19.23;;;15.87;;
13941;SDS011;7043;51.630;7.254;2023-04-30T03:06:14;22.50;;;18.03;;
13941;SDS011;7043;51.630;7.254;2023-04-30T03:08:40;20.40;;;17.70;;
13941;SDS011;7043;51.630;7.254;2023-04-30T03:11:06;19.53;;;17.47;;
13941;SDS011;7043;51.630;7.254;2023-04-30T03:13:32;19.47;;;17.40;;
13941;SDS011;7043;51.630;7.254;2023-04-30T03:15:58;22.67;;;18.07;;
13941;SDS011;7043;51.630;7.254;2023-04-30T03:18:25;22.57;;;18.50;;
13941;SDS011;7043;51.630;7.254;2023-04-30T03:20:51;22.27;;;19.77;;
13941;SDS011;7043;51.630;7.254;2023-04-30T03:23:17;24.23;;;21.03;;
13941;SDS011;7043;51.630;7.254;2023-04-30T03:25:43;24.50;;;21.20;;
13941;SDS011;7043;51.630;7.254;2023-04-30T03:28:09;26.27;;;21.43;;
13941;SDS011;7043;51.630;7.254;2023-04-30T03:30:35;26.50;;;22.13;;
13941;SDS011;7043;51.630;7.254;2023-04-30T03:33:01;26.77;;;21.87;;
13941;SDS011;7043;51.630;7.254;2023-04-30T03:35:29;26.50;;;22.67;;
13941;SDS011;7043;51.630;7.254;2023-04-30T03:37:56;27.90;;;23.83;;
13941;SDS011;7043;51.630;7.254;2023-04-30T03:40:22;28.03;;;24.27;;
13941;SDS011;7043;51.630;7.254;2023-04-30T03:42:48;30.43;;;24.57;;
13941;SDS011;7043;51.630;7.254;2023-04-30T03:45:14;32.60;;;26.00;;
13941;SDS011;7043;51.630;7.254;2023-04-30T03:47:41;29.10;;;25.07;;
13941;SDS011;7043;51.630;7.254;2023-04-30T03:50:07;32.93;;;26.37;;
13941;SDS011;7043;51.630;7.254;2023-04-30T03:52:33;33.50;;;27.27;;
13941;SDS011;7043;51.630;7.254;2023-04-30T03:55:00;32.67;;;26.30;;
13941;SDS011;7043;51.630;7.254;2023-04-30T03:57:26;31.20;;;26.80;;
13941;SDS011;7043;51.630;7.254;2023-04-30T03:59:52;30.63;;;26.77;;
13941;SDS011;7043;51.630;7.254;2023-04-30T04:02:18;30.07;;;25.77;;
13941;SDS011;7043;51.630;7.254;2023-04-30T04:04:45;29.93;;;25.50;;
13941;SDS011;7043;51.630;7.254;2023-04-30T04:07:11;32.20;;;25.83;;
13941;SDS011;7043;51.630;7.254;2023-04-30T04:09:37;27.80;;;24.80;;
13941;SDS011;7043;51.630;7.254;2023-04-30T04:12:03;29.23;;;24.97;;
13941;SDS011;7043;51.630;7.254;2023-04-30T04:14:29;29.33;;;24.80;;
13941;SDS011;7043;51.630;7.254;2023-04-30T04:16:55;30.50;;;25.20;;
13941;SDS011;7043;51.630;7.254;2023-04-30T04:19:27;31.00;;;24.80;;
13941;SDS011;7043;51.630;7.254;2023-04-30T04:21:53;28.43;;;23.53;;
13941;SDS011;7043;51.630;7.254;2023-04-30T04:24:19;27.47;;;24.40;;
13941;SDS011;7043;51.630;7.254;2023-04-30T04:26:45;29.87;;;24.67;;
13941;SDS011;7043;51.630;7.254;2023-04-30T04:29:11;29.97;;;23.93;;
13941;SDS011;7043;51.630;7.254;2023-04-30T04:31:37;28.07;;;24.00;;
13941;SDS011;7043;51.630;7.254;2023-04-30T04:34:05;28.83;;;23.87;;
13941;SDS011;7043;51.630;7.254;2023-04-30T04:36:31;28.17;;;24.37;;
13941;SDS011;7043;51.630;7.254;2023-04-30T04:38:58;28.87;;;23.93;;
13941;SDS011;7043;51.630;7.254;2023-04-30T04:41:28;30.10;;;24.47;;
13941;SDS011;7043;51.630;7.254;2023-04-30T04:43:54;27.60;;;23.20;;
13941;SDS011;7043;51.630;7.254;2023-04-30T04:46:21;27.03;;;24.07;;
13941;SDS011;7043;51.630;7.254;2023-04-30T04:48:47;26.17;;;22.93;;
13941;SDS011;7043;51.630;7.254;2023-04-30T04:51:13;26.23;;;23.27;;
13941;SDS011;7043;51.630;7.254;2023-04-30T04:53:39;25.07;;;22.40;;
13941;SDS011;7043;51.630;7.254;2023-04-30T04:56:05;25.47;;;21.73;;
13941;SDS011;7043;51.630;7.254;2023-04-30T04:58:32;24.97;;;22.17;;
13941;SDS011;7043;51.630;7.254;2023-04-30T05:00:58;26.10;;;21.67;;
13941;SDS011;7043;51.630;7.254;2023-04-30T05:03:24;25.20;;;21.50;;
13941;SDS011;7043;51.630;7.254;2023-04-30T05:05:51;24.47;;;21.67;;
13941;SDS011;7043;51.630;7.254;2023-04-30T05:08:17;24.93;;;20.90;;
13941;SDS011;7043;51.630;7.254;2023-04-30T05:10:43;21.73;;;19.47;;
13941;SDS011;7043;51.630;7.254;2023-04-30T05:13:09;22.33;;;19.93;;
13941;SDS011;7043;51.630;7.254;2023-04-30T05:15:35;22.37;;;20.07;;
13941;SDS011;7043;51.630;7.254;2023-04-30T05:18:01;20.77;;;17.47;;
13941;SDS011;7043;51.630;7.254;2023-04-30T05:20:27;21.57;;;19.27;;
13941;SDS011;7043;51.630;7.254;2023-04-30T05:22:53;20.03;;;17.93;;
13941;SDS011;7043;51.630;7.254;2023-04-30T05:25:19;19.53;;;17.50;;
13941;SDS011;7043;51.630;7.254;2023-04-30T05:27:45;21.67;;;17.43;;
13941;SDS011;7043;51.630;7.254;2023-04-30T05:30:11;20.37;;;18.13;;
13941;SDS011;7043;51.630;7.254;2023-04-30T05:32:39;22.53;;;20.20;;
13941;SDS011;7043;51.630;7.254;2023-04-30T05:35:05;18.07;;;16.07;;
13941;SDS011;7043;51.630;7.254;2023-04-30T05:37:31;18.67;;;16.33;;
13941;SDS011;7043;51.630;7.254;2023-04-30T05:39:57;19.00;;;16.50;;
13941;SDS011;7043;51.630;7.254;2023-04-30T05:42:23;18.07;;;16.17;;
13941;SDS011;7043;51.630;7.254;2023-04-30T05:44:49;17.70;;;15.80;;
13941;SDS011;7043;51.630;7.254;2023-04-30T05:47:15;17.23;;;15.30;;
13941;SDS011;7043;51.630;7.254;2023-04-30T05:49:41;16.20;;;14.60;;
13941;SDS011;7043;51.630;7.254;2023-04-30T05:52:07;16.80;;;14.73;;
13941;SDS011;7043;51.630;7.254;2023-04-30T05:54:33;16.00;;;14.30;;
13941;SDS011;7043;51.630;7.254;2023-04-30T05:57:00;16.10;;;14.50;;
13941;SDS011;7043;51.630;7.254;2023-04-30T05:59:26;16.43;;;13.60;;
13941;SDS011;7043;51.630;7.254;2023-04-30T06:01:52;13.23;;;11.83;;
13941;SDS011;7043;51.630;7.254;2023-04-30T06:04:18;15.17;;;12.03;;
13941;SDS011;7043;51.630;7.254;2023-04-30T06:06:44;14.57;;;11.70;;
13941;SDS011;7043;51.630;7.254;2023-04-30T06:09:10;18.23;;;12.63;;
13941;SDS011;7043;51.630;7.254;2023-04-30T06:11:36;14.17;;;12.27;;
13941;SDS011;7043;51.630;7.254;2023-04-30T06:14:03;14.43;;;12.10;;
13941;SDS011;7043;51.630;7.254;2023-04-30T06:16:29;16.67;;;12.23;;
13941;SDS011;7043;51.630;7.254;2023-04-30T06:18:55;15.07;;;13.03;;
13941;SDS011;7043;51.630;7.254;2023-04-30T06:21:21;15.20;;;12.87;;
13941;SDS011;7043;51.630;7.254;2023-04-30T06:23:50;13.93;;;12.37;;
13941;SDS011;7043;51.630;7.254;2023-04-30T06:26:16;13.93;;;12.03;;
13941;SDS011;7043;51.630;7.254;2023-04-30T06:28:43;14.73;;;13.20;;
13941;SDS011;7043;51.630;7.254;2023-04-30T06:31:09;13.43;;;12.07;;
13941;SDS011;7043;51.630;7.254;2023-04-30T06:33:35;13.47;;;11.47;;
13941;SDS011;7043;51.630;7.254;2023-04-30T06:36:01;15.00;;;11.63;;
13941;SDS011;7043;51.630;7.254;2023-04-30T06:38:27;14.33;;;11.73;;
13941;SDS011;7043;51.630;7.254;2023-04-30T06:40:53;14.20;;;12.23;;
13941;SDS011;7043;51.630;7.254;2023-04-30T06:43:19;13.60;;;12.20;;
13941;SDS011;7043;51.630;7.254;2023-04-30T06:45:46;13.53;;;11.87;;
13941;SDS011;7043;51.630;7.254;2023-04-30T06:48:12;13.57;;;11.40;;
13941;SDS011;7043;51.630;7.254;2023-04-30T06:50:38;15.30;;;12.20;;
13941;SDS011;7043;51.630;7.254;2023-04-30T06:53:09;14.47;;;11.43;;
13941;SDS011;7043;51.630;7.254;2023-04-30T06:55:35;12.77;;;10.40;;
13941;SDS011;7043;51.630;7.254;2023-04-30T06:58:01;13.30;;;11.07;;
13941;SDS011;7043;51.630;7.254;2023-04-30T07:00:29;13.00;;;10.87;;
13941;SDS011;7043;51.630;7.254;2023-04-30T07:02:55;12.73;;;10.63;;
13941;SDS011;7043;51.630;7.254;2023-04-30T07:05:24;14.97;;;10.47;;
13941;SDS011;7043;51.630;7.254;2023-04-30T07:07:50;11.83;;;10.23;;
13941;SDS011;7043;51.630;7.254;2023-04-30T07:10:16;12.90;;;10.77;;
13941;SDS011;7043;51.630;7.254;2023-04-30T07:12:42;15.80;;;11.57;;
13941;SDS011;7043;51.630;7.254;2023-04-30T07:15:08;13.57;;;10.77;;
13941;SDS011;7043;51.630;7.254;2023-04-30T07:17:34;11.73;;;9.93;;
13941;SDS011;7043;51.630;7.254;2023-04-30T07:20:01;13.23;;;10.60;;
13941;SDS011;7043;51.630;7.254;2023-04-30T07:22:28;13.87;;;11.13;;
13941;SDS011;7043;51.630;7.254;2023-04-30T07:24:54;14.37;;;11.27;;
13941;SDS011;7043;51.630;7.254;2023-04-30T07:27:20;11.40;;;10.17;;
13941;SDS011;7043;51.630;7.254;2023-04-30T07:29:46;13.13;;;10.60;;
13941;SDS011;7043;51.630;7.254;2023-04-30T07:32:12;13.20;;;10.60;;
13941;SDS011;7043;51.630;7.254;2023-04-30T07:34:39;13.40;;;10.63;;
13941;SDS011;7043;51.630;7.254;2023-04-30T07:37:05;14.60;;;11.23;;
13941;SDS011;7043;51.630;7.254;2023-04-30T07:39:31;12.30;;;10.90;;
13941;SDS011;7043;51.630;7.254;2023-04-30T07:41:57;13.50;;;10.23;;
13941;SDS011;7043;51.630;7.254;2023-04-30T07:44:23;13.40;;;10.53;;
13941;SDS011;7043;51.630;7.254;2023-04-30T07:46:49;13.07;;;10.47;;
13941;SDS011;7043;51.630;7.254;2023-04-30T07:49:15;12.67;;;10.00;;
13941;SDS011;7043;51.630;7.254;2023-04-30T07:51:41;12.13;;;9.87;;
13941;SDS011;7043;51.630;7.254;2023-04-30T07:54:07;12.50;;;9.83;;
13941;SDS011;7043;51.630;7.254;2023-04-30T07:56:33;11.07;;;9.50;;
13941;SDS011;7043;51.630;7.254;2023-04-30T07:59:00;11.50;;;9.10;;
13941;SDS011;7043;51.630;7.254;2023-04-30T08:01:26;12.23;;;9.07;;
13941;SDS011;7043;51.630;7.254;2023-04-30T08:03:52;10.80;;;9.70;;
13941;SDS011;7043;51.630;7.254;2023-04-30T08:06:17;11.37;;;9.40;;
13941;SDS011;7043;51.630;7.254;2023-04-30T08:08:43;10.30;;;8.63;;
13941;SDS011;7043;51.630;7.254;2023-04-30T08:11:10;9.73;;;8.23;;
13941;SDS011;7043;51.630;7.254;2023-04-30T08:13:36;8.07;;;7.27;;
13941;SDS011;7043;51.630;7.254;2023-04-30T08:16:02;8.33;;;7.53;;
13941;SDS011;7043;51.630;7.254;2023-04-30T08:18:28;7.67;;;6.87;;
13941;SDS011;7043;51.630;7.254;2023-04-30T08:20:56;7.63;;;6.90;;
13941;SDS011;7043;51.630;7.254;2023-04-30T08:23:22;8.23;;;6.90;;
13941;SDS011;7043;51.630;7.254;2023-04-30T08:25:48;7.83;;;6.77;;
13941;SDS011;7043;51.630;7.254;2023-04-30T08:28:14;7.53;;;6.80;;
13941;SDS011;7043;51.630;7.254;2023-04-30T08:30:40;8.73;;;7.03;;
13941;SDS011;7043;51.630;7.254;2023-04-30T08:33:06;8.30;;;7.40;;
13941;SDS011;7043;51.630;7.254;2023-04-30T08:35:32;9.97;;;7.67;;
13941;SDS011;7043;51.630;7.254;2023-04-30T08:37:58;10.73;;;8.37;;
13941;SDS011;7043;51.630;7.254;2023-04-30T08:40:24;9.20;;;7.10;;
13941;SDS011;7043;51.630;7.254;2023-04-30T08:42:52;10.23;;;7.07;;
13941;SDS011;7043;51.630;7.254;2023-04-30T08:45:22;8.17;;;6.60;;
13941;SDS011;7043;51.630;7.254;2023-04-30T08:47:48;8.13;;;6.63;;
13941;SDS011;7043;51.630;7.254;2023-04-30T08:50:14;9.40;;;6.63;;
13941;SDS011;7043;51.630;7.254;2023-04-30T08:52:40;7.20;;;6.07;;
13941;SDS011;7043;51.630;7.254;2023-04-30T08:55:07;7.67;;;6.70;;
13941;SDS011;7043;51.630;7.254;2023-04-30T08:57:34;7.00;;;6.10;;
13941;SDS011;7043;51.630;7.254;2023-04-30T09:00:00;6.47;;;5.77;;
13941;SDS011;7043;51.630;7.254;2023-04-30T09:02:27;8.23;;;6.37;;
13941;SDS011;7043;51.630;7.254;2023-04-30T09:04:53;6.90;;;5.80;;
13941;SDS011;7043;51.630;7.254;2023-04-30T09:07:20;8.83;;;6.30;;
13941;SDS011;7043;51.630;7.254;2023-04-30T09:09:51;7.33;;;6.10;;
13941;SDS011;7043;51.630;7.254;2023-04-30T09:12:17;6.50;;;5.90;;
13941;SDS011;7043;51.630;7.254;2023-04-30T09:15:03;8.33;;;6.20;;
13941;SDS011;7043;51.630;7.254;2023-04-30T09:17:29;7.30;;;6.00;;
13941;SDS011;7043;51.630;7.254;2023-04-30T09:20:09;7.53;;;6.27;;
13941;SDS011;7043;51.630;7.254;2023-04-30T09:22:35;7.57;;;6.43;;
13941;SDS011;7043;51.630;7.254;2023-04-30T09:25:02;8.47;;;6.80;;
13941;SDS011;7043;51.630;7.254;2023-04-30T09:27:28;7.50;;;6.57;;
13941;SDS011;7043;51.630;7.254;2023-04-30T09:29:54;7.07;;;6.37;;
13941;SDS011;7043;51.630;7.254;2023-04-30T09:32:20;7.67;;;6.30;;
13941;SDS011;7043;51.630;7.254;2023-04-30T09:34:46;8.53;;;7.63;;
13941;SDS011;7043;51.630;7.254;2023-04-30T09:37:12;7.20;;;6.50;;
13941;SDS011;7043;51.630;7.254;2023-04-30T09:39:49;7.03;;;6.40;;
13941;SDS011;7043;51.630;7.254;2023-04-30T09:42:15;7.33;;;6.50;;
13941;SDS011;7043;51.630;7.254;2023-04-30T09:44:42;7.97;;;6.57;;
13941;SDS011;7043;51.630;7.254;2023-04-30T09:47:12;6.73;;;6.13;;
13941;SDS011;7043;51.630;7.254;2023-04-30T09:49:49;7.33;;;6.47;;
13941;SDS011;7043;51.630;7.254;2023-04-30T09:52:18;6.80;;;6.13;;
13941;SDS011;7043;51.630;7.254;2023-04-30T09:54:44;6.40;;;5.73;;
13941;SDS011;7043;51.630;7.254;2023-04-30T09:57:11;7.03;;;5.97;;
13941;SDS011;7043;51.630;7.254;2023-04-30T09:59:38;5.47;;;4.97;;
13941;SDS011;7043;51.630;7.254;2023-04-30T10:02:08;7.27;;;5.40;;
13941;SDS011;7043;51.630;7.254;2023-04-30T10:04:41;7.17;;;5.60;;
13941;SDS011;7043;51.630;7.254;2023-04-30T10:07:08;6.00;;;5.40;;
13941;SDS011;7043;51.630;7.254;2023-04-30T10:09:39;6.33;;;5.73;;
13941;SDS011;7043;51.630;7.254;2023-04-30T10:12:07;6.37;;;5.53;;
13941;SDS011;7043;51.630;7.254;2023-04-30T10:14:33;6.30;;;5.20;;
13941;SDS011;7043;51.630;7.254;2023-04-30T10:19:29;7.43;;;5.33;;
13941;SDS011;7043;51.630;7.254;2023-04-30T10:21:56;5.57;;;5.07;;
13941;SDS011;7043;51.630;7.254;2023-04-30T10:24:22;7.13;;;4.40;;
13941;SDS011;7043;51.630;7.254;2023-04-30T10:26:48;5.23;;;4.50;;
13941;SDS011;7043;51.630;7.254;2023-04-30T10:29:17;6.20;;;5.03;;
13941;SDS011;7043;51.630;7.254;2023-04-30T10:31:47;4.87;;;4.23;;
13941;SDS011;7043;51.630;7.254;2023-04-30T10:36:44;6.33;;;4.87;;
13941;SDS011;7043;51.630;7.254;2023-04-30T10:39:17;4.75;;;4.00;;
13941;SDS011;7043;51.630;7.254;2023-04-30T10:41:44;5.07;;;4.53;;
13941;SDS011;7043;51.630;7.254;2023-04-30T10:44:11;5.80;;;5.17;;
13941;SDS011;7043;51.630;7.254;2023-04-30T10:46:37;6.37;;;5.03;;
13941;SDS011;7043;51.630;7.254;2023-04-30T10:49:03;5.63;;;4.53;;
13941;SDS011;7043;51.630;7.254;2023-04-30T10:51:45;6.03;;;4.60;;
13941;SDS011;7043;51.630;7.254;2023-04-30T10:54:13;5.50;;;4.90;;
13941;SDS011;7043;51.630;7.254;2023-04-30T10:56:41;6.82;;;4.97;;
13941;SDS011;7043;51.630;7.254;2023-04-30T10:59:09;6.97;;;4.93;;
13941;SDS011;7043;51.630;7.254;2023-04-30T11:04:23;5.68;;;4.15;;
13941;SDS011;7043;51.630;7.254;2023-04-30T11:09:18;4.40;;;3.93;;
13941;SDS011;7043;51.630;7.254;2023-04-30T11:11:45;4.88;;;3.90;;
13941;SDS011;7043;51.630;7.254;2023-04-30T11:14:11;4.63;;;3.77;;
13941;SDS011;7043;51.630;7.254;2023-04-30T11:16:37;4.90;;;4.50;;
13941;SDS011;7043;51.630;7.254;2023-04-30T11:19:10;5.13;;;4.37;;
13941;SDS011;7043;51.630;7.254;2023-04-30T11:27:11;5.73;;;5.23;;
13941;SDS011;7043;51.630;7.254;2023-04-30T11:29:37;6.88;;;5.30;;
13941;SDS011;7043;51.630;7.254;2023-04-30T11:32:04;6.53;;;5.27;;
13941;SDS011;7043;51.630;7.254;2023-04-30T11:34:30;6.65;;;4.43;;
13941;SDS011;7043;51.630;7.254;2023-04-30T11:36:57;5.75;;;3.50;;
13941;SDS011;7043;51.630;7.254;2023-04-30T11:39:25;4.88;;;3.60;;
13941;SDS011;7043;51.630;7.254;2023-04-30T11:41:51;4.28;;;3.50;;
13941;SDS011;7043;51.630;7.254;2023-04-30T11:44:21;5.00;;;4.10;;
13941;SDS011;7043;51.630;7.254;2023-04-30T11:46:47;4.55;;;3.80;;
13941;SDS011;7043;51.630;7.254;2023-04-30T11:49:13;6.00;;;4.60;;
13941;SDS011;7043;51.630;7.254;2023-04-30T11:51:40;5.38;;;4.55;;
13941;SDS011;7043;51.630;7.254;2023-04-30T11:54:07;4.45;;;3.20;;
13941;SDS011;7043;51.630;7.254;2023-04-30T11:56:36;3.90;;;3.28;;
13941;SDS011;7043;51.630;7.254;2023-04-30T11:59:10;6.97;;;4.40;;
13941;SDS011;7043;51.630;7.254;2023-04-30T12:01:36;6.50;;;4.20;;
13941;SDS011;7043;51.630;7.254;2023-04-30T12:04:02;4.57;;;3.42;;
13941;SDS011;7043;51.630;7.254;2023-04-30T12:06:29;2.97;;;2.70;;
13941;SDS011;7043;51.630;7.254;2023-04-30T12:08:55;3.78;;;2.70;;
13941;SDS011;7043;51.630;7.254;2023-04-30T12:11:22;3.15;;;2.55;;
13941;SDS011;7043;51.630;7.254;2023-04-30T12:14:02;3.75;;;2.53;;
13941;SDS011;7043;51.630;7.254;2023-04-30T12:16:45;2.28;;;1.80;;
13941;SDS011;7043;51.630;7.254;2023-04-30T12:19:14;2.88;;;2.53;;
13941;SDS011;7043;51.630;7.254;2023-04-30T12:21:41;3.40;;;2.83;;
13941;SDS011;7043;51.630;7.254;2023-04-30T12:24:12;4.70;;;3.05;;
13941;SDS011;7043;51.630;7.254;2023-04-30T12:26:39;4.53;;;3.05;;
13941;SDS011;7043;51.630;7.254;2023-04-30T12:29:13;4.20;;;3.20;;
13941;SDS011;7043;51.630;7.254;2023-04-30T12:31:39;4.88;;;3.72;;
13941;SDS011;7043;51.630;7.254;2023-04-30T12:34:06;6.53;;;3.67;;
13941;SDS011;7043;51.630;7.254;2023-04-30T12:36:33;4.57;;;3.85;;
13941;SDS011;7043;51.630;7.254;2023-04-30T12:39:10;3.83;;;3.47;;
13941;SDS011;7043;51.630;7.254;2023-04-30T12:41:43;4.78;;;3.35;;
13941;SDS011;7043;51.630;7.254;2023-04-30T12:44:43;3.55;;;2.90;;
13941;SDS011;7043;51.630;7.254;2023-04-30T12:47:05;3.65;;;2.80;;
13941;SDS011;7043;51.630;7.254;2023-04-30T12:49:34;4.97;;;2.58;;
13941;SDS011;7043;51.630;7.254;2023-04-30T12:52:04;3.55;;;3.25;;
13941;SDS011;7043;51.630;7.254;2023-04-30T12:54:34;2.85;;;1.35;;
13941;SDS011;7043;51.630;7.254;2023-04-30T12:57:01;3.00;;;2.33;;
13941;SDS011;7043;51.630;7.254;2023-04-30T12:59:31;2.42;;;1.83;;
13941;SDS011;7043;51.630;7.254;2023-04-30T13:02:13;3.35;;;2.42;;
13941;SDS011;7043;51.630;7.254;2023-04-30T13:04:39;2.85;;;2.25;;
13941;SDS011;7043;51.630;7.254;2023-04-30T13:07:06;2.92;;;1.80;;
13941;SDS011;7043;51.630;7.254;2023-04-30T13:09:32;3.42;;;2.40;;
13941;SDS011;7043;51.630;7.254;2023-04-30T13:11:59;2.80;;;1.92;;
13941;SDS011;7043;51.630;7.254;2023-04-30T13:14:25;4.20;;;2.42;;
13941;SDS011;7043;51.630;7.254;2023-04-30T13:16:51;2.88;;;2.58;;
13941;SDS011;7043;51.630;7.254;2023-04-30T13:19:18;4.28;;;2.58;;
13941;SDS011;7043;51.630;7.254;2023-04-30T13:21:44;3.38;;;2.08;;
13941;SDS011;7043;51.630;7.254;2023-04-30T13:24:10;2.55;;;2.10;;
13941;SDS011;7043;51.630;7.254;2023-04-30T13:26:36;3.53;;;2.03;;
13941;SDS011;7043;51.630;7.254;2023-04-30T13:29:02;2.28;;;1.73;;
13941;SDS011;7043;51.630;7.254;2023-04-30T13:31:28;3.33;;;1.70;;
13941;SDS011;7043;51.630;7.254;2023-04-30T13:33:55;3.50;;;1.92;;
13941;SDS011;7043;51.630;7.254;2023-04-30T13:36:21;2.75;;;2.00;;
13941;SDS011;7043;51.630;7.254;2023-04-30T13:38:47;3.28;;;2.30;;
13941;SDS011;7043;51.630;7.254;2023-04-30T13:41:13;3.33;;;2.00;;
13941;SDS011;7043;51.630;7.254;2023-04-30T13:43:39;3.17;;;2.30;;
13941;SDS011;7043;51.630;7.254;2023-04-30T13:46:09;2.45;;;1.60;;
13941;SDS011;7043;51.630;7.254;2023-04-30T13:48:35;3.38;;;2.00;;
13941;SDS011;7043;51.630;7.254;2023-04-30T13:51:02;3.30;;;1.75;;
13941;SDS011;7043;51.630;7.254;2023-04-30T13:53:28;2.42;;;1.88;;
13941;SDS011;7043;51.630;7.254;2023-04-30T13:55:54;2.63;;;2.08;;
13941;SDS011;7043;51.630;7.254;2023-04-30T13:58:20;2.63;;;1.67;;
13941;SDS011;7043;51.630;7.254;2023-04-30T14:00:46;2.20;;;1.75;;
13941;SDS011;7043;51.630;7.254;2023-04-30T14:03:13;3.20;;;1.40;;
13941;SDS011;7043;51.630;7.254;2023-04-30T14:05:39;2.60;;;1.50;;
13941;SDS011;7043;51.630;7.254;2023-04-30T14:08:05;2.67;;;1.80;;
13941;SDS011;7043;51.630;7.254;2023-04-30T14:10:31;2.55;;;1.75;;
13941;SDS011;7043;51.630;7.254;2023-04-30T14:12:57;2.47;;;1.67;;
13941;SDS011;7043;51.630;7.254;2023-04-30T14:15:23;3.15;;;1.77;;
13941;SDS011;7043;51.630;7.254;2023-04-30T14:17:50;4.07;;;1.63;;
13941;SDS011;7043;51.630;7.254;2023-04-30T14:20:16;2.08;;;1.38;;
13941;SDS011;7043;51.630;7.254;2023-04-30T14:22:42;2.45;;;1.55;;
13941;SDS011;7043;51.630;7.254;2023-04-30T14:25:08;2.30;;;1.67;;
13941;SDS011;7043;51.630;7.254;2023-04-30T14:27:35;3.50;;;2.10;;
13941;SDS011;7043;51.630;7.254;2023-04-30T14:30:02;2.00;;;1.60;;
13941;SDS011;7043;51.630;7.254;2023-04-30T14:32:28;3.70;;;1.75;;
13941;SDS011;7043;51.630;7.254;2023-04-30T14:34:54;2.53;;;1.55;;
13941;SDS011;7043;51.630;7.254;2023-04-30T14:37:20;1.73;;;1.50;;
13941;SDS011;7043;51.630;7.254;2023-04-30T14:39:46;2.80;;;1.80;;
13941;SDS011;7043;51.630;7.254;2023-04-30T14:42:13;4.95;;;2.70;;
13941;SDS011;7043;51.630;7.254;2023-04-30T14:44:39;2.90;;;1.80;;
13941;SDS011;7043;51.630;7.254;2023-04-30T14:47:05;2.30;;;1.67;;
13941;SDS011;7043;51.630;7.254;2023-04-30T14:49:31;2.38;;;1.60;;
13941;SDS011;7043;51.630;7.254;2023-04-30T14:51:57;3.30;;;1.80;;
13941;SDS011;7043;51.630;7.254;2023-04-30T14:54:23;2.80;;;1.60;;
13941;SDS011;7043;51.630;7.254;2023-04-30T14:56:49;4.05;;;2.30;;
13941;SDS011;7043;51.630;7.254;2023-04-30T14:59:15;2.30;;;1.30;;
13941;SDS011;7043;51.630;7.254;2023-04-30T15:01:41;2.88;;;1.70;;
13941;SDS011;7043;51.630;7.254;2023-04-30T15:04:07;3.30;;;1.50;;
13941;SDS011;7043;51.630;7.254;2023-04-30T15:06:33;3.47;;;1.70;;
13941;SDS011;7043;51.630;7.254;2023-04-30T15:08:59;4.65;;;1.90;;
13941;SDS011;7043;51.630;7.254;2023-04-30T15:11:26;4.07;;;2.20;;
13941;SDS011;7043;51.630;7.254;2023-04-30T15:13:52;3.15;;;1.90;;
13941;SDS011;7043;51.630;7.254;2023-04-30T15:16:19;3.72;;;2.30;;
13941;SDS011;7043;51.630;7.254;2023-04-30T15:18:45;2.55;;;1.58;;
13941;SDS011;7043;51.630;7.254;2023-04-30T15:21:12;2.38;;;1.80;;
13941;SDS011;7043;51.630;7.254;2023-04-30T15:23:38;4.28;;;1.90;;
13941;SDS011;7043;51.630;7.254;2023-04-30T15:26:04;3.55;;;2.15;;